sensor_id;sensor_type;location;lat;lon;timestamp;P1;durP1;ratioP1;P2;durP2;ratioP2
6661;SDS011;3367;48.714;8.994;2023-04-06T00:02:26;9.07;;;6.83;;
6661;SDS011;3367;48.714;8.994;2023-04-06T00:04:54;10.10;;;6.60;;
6661;SDS011;3367;48.714;8.994;2023-04-06T00:07:20;12.70;;;7.60;;
6661;SDS011;3367;48.714;8.994;2023-04-06T00:09:47;9.60;;;6.80;;
6661;SDS011;3367;48.714;8.994;2023-04-06T00:12:14;14.83;;;7.03;;
6661;SDS011;3367;48.714;8.994;2023-04-06T00:14:41;10.53;;;6.63;;
6661;SDS011;3367;48.714;8.994;2023-04-06T00:17:08;7.40;;;6.00;;
6661;SDS011;3367;48.714;8.994;2023-04-06T00:19:35;8.80;;;6.43;;
6661;SDS011;3367;48.714;8.994;2023-04-06T00:22:03;9.80;;;6.30;;
6661;SDS011;3367;48.714;8.994;2023-04-06T00:24:30;9.83;;;7.50;;
6661;SDS011;3367;48.714;8.994;2023-04-06T00:26:56;12.20;;;6.93;;
6661;SDS011;3367;48.714;8.994;2023-04-06T00:29:23;12.73;;;6.53;;
6661;SDS011;3367;48.714;8.994;2023-04-06T00:31:50;9.73;;;7.17;;
6661;SDS011;3367;48.714;8.994;2023-04-06T00:34:16;11.50;;;6.70;;
6661;SDS011;3367;48.714;8.994;2023-04-06T00:36:43;11.63;;;7.40;;
6661;SDS011;3367;48.714;8.994;2023-04-06T00:39:11;13.10;;;7.60;;
6661;SDS011;3367;48.714;8.994;2023-04-06T00:41:38;12.73;;;8.10;;
6661;SDS011;3367;48.714;8.994;2023-04-06T00:44:08;11.23;;;7.57;;
6661;SDS011;3367;48.714;8.994;2023-04-06T00:46:35;13.43;;;7.87;;
6661;SDS011;3367;48.714;8.994;2023-04-06T00:49:02;12.60;;;8.27;;
6661;SDS011;3367;48.714;8.994;2023-04-06T00:51:28;11.00;;;8.00;;
6661;SDS011;3367;48.714;8.994;2023-04-06T00:53:55;15.87;;;8.23;;
6661;SDS011;3367;48.714;8.994;2023-04-06T00:56:23;11.50;;;7.60;;
6661;SDS011;3367;48.714;8.994;2023-04-06T00:58:51;9.10;;;7.03;;
6661;SDS011;3367;48.714;8.994;2023-04-06T01:01:18;10.43;;;8.10;;
6661;SDS011;3367;48.714;8.994;2023-04-06T01:03:44;12.50;;;7.93;;
6661;SDS011;3367;48.714;8.994;2023-04-06T01:06:13;14.60;;;8.30;;
6661;SDS011;3367;48.714;8.994;2023-04-06T01:08:40;11.80;;;8.20;;
6661;SDS011;3367;48.714;8.994;2023-04-06T01:11:07;16.40;;;9.80;;
6661;SDS011;3367;48.714;8.994;2023-04-06T01:13:36;16.50;;;8.70;;
6661;SDS011;3367;48.714;8.994;2023-04-06T01:16:03;18.93;;;8.20;;
6661;SDS011;3367;48.714;8.994;2023-04-06T01:18:31;13.93;;;8.17;;
6661;SDS011;3367;48.714;8.994;2023-04-06T01:20:57;14.03;;;7.90;;
6661;SDS011;3367;48.714;8.994;2023-04-06T01:23:26;15.53;;;8.40;;
6661;SDS011;3367;48.714;8.994;2023-04-06T01:25:52;12.07;;;7.30;;
6661;SDS011;3367;48.714;8.994;2023-04-06T01:28:19;14.93;;;8.70;;
6661;SDS011;3367;48.714;8.994;2023-04-06T01:30:46;16.77;;;8.70;;
6661;SDS011;3367;48.714;8.994;2023-04-06T01:33:12;15.00;;;9.23;;
6661;SDS011;3367;48.714;8.994;2023-04-06T01:35:39;20.40;;;9.27;;
6661;SDS011;3367;48.714;8.994;2023-04-06T01:38:06;19.20;;;8.87;;
6661;SDS011;3367;48.714;8.994;2023-04-06T01:40:34;14.47;;;8.40;;
6661;SDS011;3367;48.714;8.994;2023-04-06T01:43:00;13.00;;;7.77;;
6661;SDS011;3367;48.714;8.994;2023-04-06T01:45:27;10.50;;;7.90;;
6661;SDS011;3367;48.714;8.994;2023-04-06T01:47:54;13.83;;;9.00;;
6661;SDS011;3367;48.714;8.994;2023-04-06T01:50:21;24.13;;;8.30;;
6661;SDS011;3367;48.714;8.994;2023-04-06T01:52:48;13.27;;;8.27;;
6661;SDS011;3367;48.714;8.994;2023-04-06T01:55:15;13.10;;;8.47;;
6661;SDS011;3367;48.714;8.994;2023-04-06T01:57:43;15.50;;;9.13;;
6661;SDS011;3367;48.714;8.994;2023-04-06T02:00:10;15.53;;;9.60;;
6661;SDS011;3367;48.714;8.994;2023-04-06T02:02:37;13.70;;;9.30;;
6661;SDS011;3367;48.714;8.994;2023-04-06T02:05:04;16.37;;;8.53;;
6661;SDS011;3367;48.714;8.994;2023-04-06T02:07:32;13.33;;;8.13;;
6661;SDS011;3367;48.714;8.994;2023-04-06T02:09:58;15.20;;;8.40;;
6661;SDS011;3367;48.714;8.994;2023-04-06T02:15:48;12.03;;;7.80;;
6661;SDS011;3367;48.714;8.994;2023-04-06T02:18:16;12.23;;;8.43;;
6661;SDS011;3367;48.714;8.994;2023-04-06T02:20:43;14.07;;;8.53;;
6661;SDS011;3367;48.714;8.994;2023-04-06T02:23:10;15.37;;;10.03;;
6661;SDS011;3367;48.714;8.994;2023-04-06T02:25:37;13.43;;;8.83;;
6661;SDS011;3367;48.714;8.994;2023-04-06T02:28:04;15.70;;;9.40;;
6661;SDS011;3367;48.714;8.994;2023-04-06T02:30:30;13.53;;;8.57;;
6661;SDS011;3367;48.714;8.994;2023-04-06T02:32:59;12.70;;;8.60;;
6661;SDS011;3367;48.714;8.994;2023-04-06T02:35:25;16.77;;;9.37;;
6661;SDS011;3367;48.714;8.994;2023-04-06T02:37:53;15.53;;;9.07;;
6661;SDS011;3367;48.714;8.994;2023-04-06T02:40:20;14.83;;;9.80;;
6661;SDS011;3367;48.714;8.994;2023-04-06T02:42:47;12.30;;;8.23;;
6661;SDS011;3367;48.714;8.994;2023-04-06T02:45:13;14.50;;;8.93;;
6661;SDS011;3367;48.714;8.994;2023-04-06T02:47:41;14.40;;;8.70;;
6661;SDS011;3367;48.714;8.994;2023-04-06T02:50:09;14.37;;;8.80;;
6661;SDS011;3367;48.714;8.994;2023-04-06T02:52:36;15.80;;;8.13;;
6661;SDS011;3367;48.714;8.994;2023-04-06T02:55:03;12.23;;;8.33;;
6661;SDS011;3367;48.714;8.994;2023-04-06T02:57:32;15.00;;;9.47;;
6661;SDS011;3367;48.714;8.994;2023-04-06T02:59:59;13.77;;;9.37;;
6661;SDS011;3367;48.714;8.994;2023-04-06T03:02:25;20.43;;;10.13;;
6661;SDS011;3367;48.714;8.994;2023-04-06T03:04:52;14.87;;;8.90;;
6661;SDS011;3367;48.714;8.994;2023-04-06T03:07:20;16.43;;;9.57;;
6661;SDS011;3367;48.714;8.994;2023-04-06T03:09:47;13.97;;;8.80;;
6661;SDS011;3367;48.714;8.994;2023-04-06T03:12:14;15.57;;;9.43;;
6661;SDS011;3367;48.714;8.994;2023-04-06T03:14:41;15.20;;;10.23;;
6661;SDS011;3367;48.714;8.994;2023-04-06T03:17:08;14.10;;;8.90;;
6661;SDS011;3367;48.714;8.994;2023-04-06T03:19:35;16.13;;;10.13;;
6661;SDS011;3367;48.714;8.994;2023-04-06T03:22:01;16.33;;;9.87;;
6661;SDS011;3367;48.714;8.994;2023-04-06T03:24:29;16.87;;;10.30;;
6661;SDS011;3367;48.714;8.994;2023-04-06T03:26:56;18.50;;;9.77;;
6661;SDS011;3367;48.714;8.994;2023-04-06T03:29:23;16.27;;;9.43;;
6661;SDS011;3367;48.714;8.994;2023-04-06T03:31:50;18.57;;;10.40;;
6661;SDS011;3367;48.714;8.994;2023-04-06T03:34:17;16.63;;;10.37;;
6661;SDS011;3367;48.714;8.994;2023-04-06T03:36:43;17.20;;;10.63;;
6661;SDS011;3367;48.714;8.994;2023-04-06T03:39:10;20.77;;;10.77;;
6661;SDS011;3367;48.714;8.994;2023-04-06T03:41:38;16.93;;;9.93;;
6661;SDS011;3367;48.714;8.994;2023-04-06T03:44:05;15.27;;;10.37;;
6661;SDS011;3367;48.714;8.994;2023-04-06T03:46:32;18.30;;;9.77;;
6661;SDS011;3367;48.714;8.994;2023-04-06T03:48:58;13.70;;;8.53;;
6661;SDS011;3367;48.714;8.994;2023-04-06T03:51:25;18.70;;;10.40;;
6661;SDS011;3367;48.714;8.994;2023-04-06T03:53:53;13.33;;;9.07;;
6661;SDS011;3367;48.714;8.994;2023-04-06T03:56:20;16.93;;;9.90;;
6661;SDS011;3367;48.714;8.994;2023-04-06T03:58:48;16.40;;;9.93;;
6661;SDS011;3367;48.714;8.994;2023-04-06T04:01:15;15.80;;;9.97;;
6661;SDS011;3367;48.714;8.994;2023-04-06T04:03:42;15.90;;;9.90;;
6661;SDS011;3367;48.714;8.994;2023-04-06T04:06:09;15.13;;;10.17;;
6661;SDS011;3367;48.714;8.994;2023-04-06T04:08:35;19.13;;;10.20;;
6661;SDS011;3367;48.714;8.994;2023-04-06T04:11:02;16.40;;;9.47;;
6661;SDS011;3367;48.714;8.994;2023-04-06T04:13:29;18.83;;;10.00;;
6661;SDS011;3367;48.714;8.994;2023-04-06T04:15:57;14.27;;;9.27;;
6661;SDS011;3367;48.714;8.994;2023-04-06T04:18:24;14.60;;;9.47;;
6661;SDS011;3367;48.714;8.994;2023-04-06T04:20:51;15.50;;;8.87;;
6661;SDS011;3367;48.714;8.994;2023-04-06T04:23:18;13.63;;;8.83;;
6661;SDS011;3367;48.714;8.994;2023-04-06T04:25:44;12.50;;;8.50;;
6661;SDS011;3367;48.714;8.994;2023-04-06T04:28:11;16.27;;;9.03;;
6661;SDS011;3367;48.714;8.994;2023-04-06T04:30:38;16.83;;;10.10;;
6661;SDS011;3367;48.714;8.994;2023-04-06T04:33:06;15.50;;;9.10;;
6661;SDS011;3367;48.714;8.994;2023-04-06T04:35:33;13.20;;;9.10;;
6661;SDS011;3367;48.714;8.994;2023-04-06T04:37:59;13.93;;;8.70;;
6661;SDS011;3367;48.714;8.994;2023-04-06T04:40:26;14.80;;;8.80;;
6661;SDS011;3367;48.714;8.994;2023-04-06T04:42:52;14.03;;;8.40;;
6661;SDS011;3367;48.714;8.994;2023-04-06T04:45:19;15.30;;;9.50;;
6661;SDS011;3367;48.714;8.994;2023-04-06T04:47:46;26.83;;;9.23;;
6661;SDS011;3367;48.714;8.994;2023-04-06T04:50:14;14.77;;;9.60;;
6661;SDS011;3367;48.714;8.994;2023-04-06T04:52:41;16.07;;;8.80;;
6661;SDS011;3367;48.714;8.994;2023-04-06T04:55:08;14.73;;;9.03;;
6661;SDS011;3367;48.714;8.994;2023-04-06T04:57:34;15.00;;;10.07;;
6661;SDS011;3367;48.714;8.994;2023-04-06T05:00:01;15.83;;;9.23;;
6661;SDS011;3367;48.714;8.994;2023-04-06T05:02:28;19.17;;;9.00;;
6661;SDS011;3367;48.714;8.994;2023-04-06T05:04:55;11.40;;;8.43;;
6661;SDS011;3367;48.714;8.994;2023-04-06T05:07:23;14.20;;;8.80;;
6661;SDS011;3367;48.714;8.994;2023-04-06T05:09:50;15.50;;;9.50;;
6661;SDS011;3367;48.714;8.994;2023-04-06T05:12:17;11.60;;;8.23;;
6661;SDS011;3367;48.714;8.994;2023-04-06T05:14:44;11.67;;;8.47;;
6661;SDS011;3367;48.714;8.994;2023-04-06T05:17:11;12.90;;;8.40;;
6661;SDS011;3367;48.714;8.994;2023-04-06T05:19:38;18.03;;;9.27;;
6661;SDS011;3367;48.714;8.994;2023-04-06T05:22:04;13.60;;;9.43;;
6661;SDS011;3367;48.714;8.994;2023-04-06T05:24:32;12.73;;;9.30;;
6661;SDS011;3367;48.714;8.994;2023-04-06T05:27:00;14.30;;;9.30;;
6661;SDS011;3367;48.714;8.994;2023-04-06T05:29:26;13.87;;;9.47;;
6661;SDS011;3367;48.714;8.994;2023-04-06T05:31:53;12.57;;;8.57;;
6661;SDS011;3367;48.714;8.994;2023-04-06T05:34:20;15.43;;;9.20;;
6661;SDS011;3367;48.714;8.994;2023-04-06T05:36:47;15.90;;;11.37;;
6661;SDS011;3367;48.714;8.994;2023-04-06T05:39:14;13.30;;;9.73;;
6661;SDS011;3367;48.714;8.994;2023-04-06T05:41:42;14.93;;;8.90;;
6661;SDS011;3367;48.714;8.994;2023-04-06T05:44:09;16.40;;;10.50;;
6661;SDS011;3367;48.714;8.994;2023-04-06T05:46:35;15.60;;;9.23;;
6661;SDS011;3367;48.714;8.994;2023-04-06T05:49:02;13.43;;;8.17;;
6661;SDS011;3367;48.714;8.994;2023-04-06T05:51:29;13.43;;;9.27;;
6661;SDS011;3367;48.714;8.994;2023-04-06T05:53:55;24.63;;;13.73;;
6661;SDS011;3367;48.714;8.994;2023-04-06T05:56:22;16.60;;;10.47;;
6661;SDS011;3367;48.714;8.994;2023-04-06T05:58:51;21.33;;;9.60;;
6661;SDS011;3367;48.714;8.994;2023-04-06T06:01:18;19.13;;;10.03;;
6661;SDS011;3367;48.714;8.994;2023-04-06T06:03:45;21.63;;;10.07;;
6661;SDS011;3367;48.714;8.994;2023-04-06T06:06:11;26.23;;;9.33;;
6661;SDS011;3367;48.714;8.994;2023-04-06T06:08:38;20.57;;;9.10;;
6661;SDS011;3367;48.714;8.994;2023-04-06T06:11:05;28.40;;;9.60;;
6661;SDS011;3367;48.714;8.994;2023-04-06T06:13:31;19.37;;;9.00;;
6661;SDS011;3367;48.714;8.994;2023-04-06T06:15:59;14.23;;;9.77;;
6661;SDS011;3367;48.714;8.994;2023-04-06T06:18:30;15.73;;;9.10;;
6661;SDS011;3367;48.714;8.994;2023-04-06T06:20:56;15.70;;;10.47;;
6661;SDS011;3367;48.714;8.994;2023-04-06T06:23:23;25.00;;;9.13;;
6661;SDS011;3367;48.714;8.994;2023-04-06T06:25:50;15.70;;;8.53;;
6661;SDS011;3367;48.714;8.994;2023-04-06T06:28:17;13.83;;;8.27;;
6661;SDS011;3367;48.714;8.994;2023-04-06T06:30:44;14.10;;;11.00;;
6661;SDS011;3367;48.714;8.994;2023-04-06T06:33:13;16.27;;;8.43;;
6661;SDS011;3367;48.714;8.994;2023-04-06T06:35:40;13.83;;;8.60;;
6661;SDS011;3367;48.714;8.994;2023-04-06T06:38:07;19.53;;;8.17;;
6661;SDS011;3367;48.714;8.994;2023-04-06T06:40:34;27.13;;;15.47;;
6661;SDS011;3367;48.714;8.994;2023-04-06T06:43:01;32.60;;;16.90;;
6661;SDS011;3367;48.714;8.994;2023-04-06T06:45:28;16.00;;;9.60;;
6661;SDS011;3367;48.714;8.994;2023-04-06T06:47:55;14.70;;;9.60;;
6661;SDS011;3367;48.714;8.994;2023-04-06T06:50:23;19.50;;;9.10;;
6661;SDS011;3367;48.714;8.994;2023-04-06T06:52:50;15.07;;;8.50;;
6661;SDS011;3367;48.714;8.994;2023-04-06T06:55:17;15.53;;;9.23;;
6661;SDS011;3367;48.714;8.994;2023-04-06T06:57:44;15.07;;;9.70;;
6661;SDS011;3367;48.714;8.994;2023-04-06T07:00:12;12.80;;;9.50;;
6661;SDS011;3367;48.714;8.994;2023-04-06T07:02:40;14.90;;;9.63;;
6661;SDS011;3367;48.714;8.994;2023-04-06T07:05:07;16.73;;;10.00;;
6661;SDS011;3367;48.714;8.994;2023-04-06T07:07:35;17.57;;;10.80;;
6661;SDS011;3367;48.714;8.994;2023-04-06T07:10:02;15.80;;;9.40;;
6661;SDS011;3367;48.714;8.994;2023-04-06T07:12:28;14.50;;;10.30;;
6661;SDS011;3367;48.714;8.994;2023-04-06T07:14:55;14.07;;;8.80;;
6661;SDS011;3367;48.714;8.994;2023-04-06T07:17:22;19.03;;;9.73;;
6661;SDS011;3367;48.714;8.994;2023-04-06T07:19:49;14.40;;;8.70;;
6661;SDS011;3367;48.714;8.994;2023-04-06T07:22:16;19.03;;;9.07;;
6661;SDS011;3367;48.714;8.994;2023-04-06T07:24:44;12.43;;;9.07;;
6661;SDS011;3367;48.714;8.994;2023-04-06T07:27:10;13.60;;;9.67;;
6661;SDS011;3367;48.714;8.994;2023-04-06T07:29:37;14.10;;;9.90;;
6661;SDS011;3367;48.714;8.994;2023-04-06T07:32:04;9.13;;;8.10;;
6661;SDS011;3367;48.714;8.994;2023-04-06T07:34:30;15.20;;;8.73;;
6661;SDS011;3367;48.714;8.994;2023-04-06T07:36:57;17.60;;;10.20;;
6661;SDS011;3367;48.714;8.994;2023-04-06T07:39:25;16.53;;;9.57;;
6661;SDS011;3367;48.714;8.994;2023-04-06T07:41:53;14.83;;;8.73;;
6661;SDS011;3367;48.714;8.994;2023-04-06T07:44:20;15.07;;;8.40;;
6661;SDS011;3367;48.714;8.994;2023-04-06T07:46:47;11.27;;;8.87;;
6661;SDS011;3367;48.714;8.994;2023-04-06T07:49:13;15.73;;;8.80;;
6661;SDS011;3367;48.714;8.994;2023-04-06T07:51:40;12.50;;;8.80;;
6661;SDS011;3367;48.714;8.994;2023-04-06T07:54:07;10.43;;;9.33;;
6661;SDS011;3367;48.714;8.994;2023-04-06T07:56:34;11.53;;;8.57;;
6661;SDS011;3367;48.714;8.994;2023-04-06T07:59:02;13.07;;;9.70;;
6661;SDS011;3367;48.714;8.994;2023-04-06T08:01:29;15.73;;;8.90;;
6661;SDS011;3367;48.714;8.994;2023-04-06T08:03:55;14.60;;;8.43;;
6661;SDS011;3367;48.714;8.994;2023-04-06T08:06:22;17.03;;;11.17;;
6661;SDS011;3367;48.714;8.994;2023-04-06T08:08:49;13.77;;;9.07;;
6661;SDS011;3367;48.714;8.994;2023-04-06T08:11:16;11.80;;;8.97;;
6661;SDS011;3367;48.714;8.994;2023-04-06T08:13:43;18.20;;;8.70;;
6661;SDS011;3367;48.714;8.994;2023-04-06T08:16:11;12.23;;;9.33;;
6661;SDS011;3367;48.714;8.994;2023-04-06T08:18:37;13.20;;;9.30;;
6661;SDS011;3367;48.714;8.994;2023-04-06T08:21:04;12.10;;;9.30;;
6661;SDS011;3367;48.714;8.994;2023-04-06T08:23:31;18.20;;;10.10;;
6661;SDS011;3367;48.714;8.994;2023-04-06T08:25:58;10.40;;;8.00;;
6661;SDS011;3367;48.714;8.994;2023-04-06T08:28:24;11.53;;;8.87;;
6661;SDS011;3367;48.714;8.994;2023-04-06T08:30:51;14.40;;;9.00;;
6661;SDS011;3367;48.714;8.994;2023-04-06T08:33:19;11.80;;;8.73;;
6661;SDS011;3367;48.714;8.994;2023-04-06T08:35:46;11.87;;;8.37;;
6661;SDS011;3367;48.714;8.994;2023-04-06T08:38:12;11.23;;;7.10;;
6661;SDS011;3367;48.714;8.994;2023-04-06T08:40:39;14.53;;;7.30;;
6661;SDS011;3367;48.714;8.994;2023-04-06T08:43:08;18.23;;;8.40;;
6661;SDS011;3367;48.714;8.994;2023-04-06T08:45:38;12.90;;;7.50;;
6661;SDS011;3367;48.714;8.994;2023-04-06T08:48:06;11.10;;;7.40;;
6661;SDS011;3367;48.714;8.994;2023-04-06T08:50:35;15.10;;;7.17;;
6661;SDS011;3367;48.714;8.994;2023-04-06T08:53:05;15.53;;;8.20;;
6661;SDS011;3367;48.714;8.994;2023-04-06T08:55:32;10.93;;;7.10;;
6661;SDS011;3367;48.714;8.994;2023-04-06T08:57:59;11.97;;;7.87;;
6661;SDS011;3367;48.714;8.994;2023-04-06T09:00:26;11.70;;;6.00;;
6661;SDS011;3367;48.714;8.994;2023-04-06T09:02:54;13.47;;;7.23;;
6661;SDS011;3367;48.714;8.994;2023-04-06T09:05:22;9.77;;;7.30;;
6661;SDS011;3367;48.714;8.994;2023-04-06T09:07:52;9.97;;;6.87;;
6661;SDS011;3367;48.714;8.994;2023-04-06T09:10:19;8.80;;;5.40;;
6661;SDS011;3367;48.714;8.994;2023-04-06T09:12:48;9.57;;;7.27;;
6661;SDS011;3367;48.714;8.994;2023-04-06T09:15:18;11.73;;;7.20;;
6661;SDS011;3367;48.714;8.994;2023-04-06T09:17:46;8.03;;;6.80;;
6661;SDS011;3367;48.714;8.994;2023-04-06T09:20:13;9.73;;;7.33;;
6661;SDS011;3367;48.714;8.994;2023-04-06T09:22:42;10.63;;;7.50;;
6661;SDS011;3367;48.714;8.994;2023-04-06T09:25:17;9.93;;;6.67;;
6661;SDS011;3367;48.714;8.994;2023-04-06T09:27:46;8.43;;;6.43;;
6661;SDS011;3367;48.714;8.994;2023-04-06T09:30:13;7.37;;;6.57;;
6661;SDS011;3367;48.714;8.994;2023-04-06T09:32:47;8.40;;;6.73;;
6661;SDS011;3367;48.714;8.994;2023-04-06T09:35:15;8.73;;;6.50;;
6661;SDS011;3367;48.714;8.994;2023-04-06T09:37:42;6.20;;;5.63;;
6661;SDS011;3367;48.714;8.994;2023-04-06T09:40:11;9.33;;;6.47;;
6661;SDS011;3367;48.714;8.994;2023-04-06T09:42:40;9.50;;;7.13;;
6661;SDS011;3367;48.714;8.994;2023-04-06T09:45:08;8.00;;;6.10;;
6661;SDS011;3367;48.714;8.994;2023-04-06T09:47:35;9.40;;;6.83;;
6661;SDS011;3367;48.714;8.994;2023-04-06T09:50:05;8.83;;;6.10;;
6661;SDS011;3367;48.714;8.994;2023-04-06T09:52:35;7.60;;;6.30;;
6661;SDS011;3367;48.714;8.994;2023-04-06T09:55:04;8.90;;;7.10;;
6661;SDS011;3367;48.714;8.994;2023-04-06T09:57:35;8.10;;;6.23;;
6661;SDS011;3367;48.714;8.994;2023-04-06T10:00:12;6.63;;;5.93;;
6661;SDS011;3367;48.714;8.994;2023-04-06T10:02:45;9.70;;;6.17;;
6661;SDS011;3367;48.714;8.994;2023-04-06T10:05:19;7.50;;;6.27;;
6661;SDS011;3367;48.714;8.994;2023-04-06T10:07:48;9.13;;;6.90;;
6661;SDS011;3367;48.714;8.994;2023-04-06T10:10:20;8.60;;;5.90;;
6661;SDS011;3367;48.714;8.994;2023-04-06T10:12:48;6.93;;;6.20;;
6661;SDS011;3367;48.714;8.994;2023-04-06T10:15:15;6.40;;;5.80;;
6661;SDS011;3367;48.714;8.994;2023-04-06T10:17:42;9.57;;;6.70;;
6661;SDS011;3367;48.714;8.994;2023-04-06T10:20:10;7.23;;;6.20;;
6661;SDS011;3367;48.714;8.994;2023-04-06T10:22:44;5.50;;;5.00;;
6661;SDS011;3367;48.714;8.994;2023-04-06T10:25:25;5.17;;;4.67;;
6661;SDS011;3367;48.714;8.994;2023-04-06T10:27:59;6.20;;;5.60;;
6661;SDS011;3367;48.714;8.994;2023-04-06T10:30:26;6.97;;;5.10;;
6661;SDS011;3367;48.714;8.994;2023-04-06T10:32:54;7.57;;;5.40;;
6661;SDS011;3367;48.714;8.994;2023-04-06T10:35:21;6.20;;;5.60;;
6661;SDS011;3367;48.714;8.994;2023-04-06T10:37:49;7.07;;;6.13;;
6661;SDS011;3367;48.714;8.994;2023-04-06T10:40:21;5.20;;;4.70;;
6661;SDS011;3367;48.714;8.994;2023-04-06T10:42:50;6.93;;;5.30;;
6661;SDS011;3367;48.714;8.994;2023-04-06T10:45:22;5.67;;;5.07;;
6661;SDS011;3367;48.714;8.994;2023-04-06T10:47:51;5.93;;;5.37;;
6661;SDS011;3367;48.714;8.994;2023-04-06T10:50:19;6.60;;;5.50;;
6661;SDS011;3367;48.714;8.994;2023-04-06T10:52:47;9.17;;;6.00;;
6661;SDS011;3367;48.714;8.994;2023-04-06T10:55:24;6.00;;;4.80;;
6661;SDS011;3367;48.714;8.994;2023-04-06T10:57:52;8.40;;;5.27;;
6661;SDS011;3367;48.714;8.994;2023-04-06T11:00:19;5.67;;;4.97;;
6661;SDS011;3367;48.714;8.994;2023-04-06T11:02:47;7.20;;;6.30;;
6661;SDS011;3367;48.714;8.994;2023-04-06T11:05:14;7.13;;;5.60;;
6661;SDS011;3367;48.714;8.994;2023-04-06T11:07:41;5.90;;;4.90;;
6661;SDS011;3367;48.714;8.994;2023-04-06T11:10:08;6.60;;;5.20;;
6661;SDS011;3367;48.714;8.994;2023-04-06T11:12:35;6.23;;;5.63;;
6661;SDS011;3367;48.714;8.994;2023-04-06T11:15:03;6.13;;;5.17;;
6661;SDS011;3367;48.714;8.994;2023-04-06T11:17:30;5.73;;;5.03;;
6661;SDS011;3367;48.714;8.994;2023-04-06T11:19:59;7.87;;;5.90;;
6661;SDS011;3367;48.714;8.994;2023-04-06T11:22:26;6.60;;;5.20;;
6661;SDS011;3367;48.714;8.994;2023-04-06T11:24:53;6.50;;;5.20;;
6661;SDS011;3367;48.714;8.994;2023-04-06T11:27:30;9.53;;;5.00;;
6661;SDS011;3367;48.714;8.994;2023-04-06T11:29:57;10.43;;;5.40;;
6661;SDS011;3367;48.714;8.994;2023-04-06T11:32:24;7.63;;;4.80;;
6661;SDS011;3367;48.714;8.994;2023-04-06T11:34:51;9.03;;;5.37;;
6661;SDS011;3367;48.714;8.994;2023-04-06T11:37:19;9.90;;;5.57;;
6661;SDS011;3367;48.714;8.994;2023-04-06T11:39:47;6.30;;;5.67;;
6661;SDS011;3367;48.714;8.994;2023-04-06T11:42:21;5.97;;;4.70;;
6661;SDS011;3367;48.714;8.994;2023-04-06T11:44:49;6.37;;;5.33;;
6661;SDS011;3367;48.714;8.994;2023-04-06T11:47:17;8.53;;;4.97;;
6661;SDS011;3367;48.714;8.994;2023-04-06T11:49:45;7.07;;;5.10;;
6661;SDS011;3367;48.714;8.994;2023-04-06T11:52:16;5.97;;;5.13;;
6661;SDS011;3367;48.714;8.994;2023-04-06T11:54:45;5.47;;;4.67;;
6661;SDS011;3367;48.714;8.994;2023-04-06T11:57:13;7.73;;;5.00;;
6661;SDS011;3367;48.714;8.994;2023-04-06T11:59:41;15.43;;;5.37;;
6661;SDS011;3367;48.714;8.994;2023-04-06T12:02:08;7.13;;;5.27;;
6661;SDS011;3367;48.714;8.994;2023-04-06T12:04:35;8.13;;;5.73;;
6661;SDS011;3367;48.714;8.994;2023-04-06T12:07:03;6.30;;;5.00;;
6661;SDS011;3367;48.714;8.994;2023-04-06T12:09:32;9.70;;;5.37;;
6661;SDS011;3367;48.714;8.994;2023-04-06T12:11:59;8.23;;;5.47;;
6661;SDS011;3367;48.714;8.994;2023-04-06T12:14:26;7.10;;;5.60;;
6661;SDS011;3367;48.714;8.994;2023-04-06T12:16:53;8.03;;;5.77;;
6661;SDS011;3367;48.714;8.994;2023-04-06T12:19:19;6.50;;;5.80;;
6661;SDS011;3367;48.714;8.994;2023-04-06T12:21:50;5.63;;;5.10;;
6661;SDS011;3367;48.714;8.994;2023-04-06T12:24:17;6.53;;;5.80;;
6661;SDS011;3367;48.714;8.994;2023-04-06T12:26:45;7.80;;;5.30;;
6661;SDS011;3367;48.714;8.994;2023-04-06T12:29:12;7.47;;;5.43;;
6661;SDS011;3367;48.714;8.994;2023-04-06T12:31:38;6.53;;;4.67;;
6661;SDS011;3367;48.714;8.994;2023-04-06T12:34:05;5.67;;;4.90;;
6661;SDS011;3367;48.714;8.994;2023-04-06T12:36:33;6.37;;;5.23;;
6661;SDS011;3367;48.714;8.994;2023-04-06T12:39:00;6.17;;;5.57;;
6661;SDS011;3367;48.714;8.994;2023-04-06T12:41:27;8.57;;;5.20;;
6661;SDS011;3367;48.714;8.994;2023-04-06T12:43:56;5.83;;;5.27;;
6661;SDS011;3367;48.714;8.994;2023-04-06T12:46:24;6.43;;;5.83;;
6661;SDS011;3367;48.714;8.994;2023-04-06T12:48:51;7.33;;;5.73;;
6661;SDS011;3367;48.714;8.994;2023-04-06T12:51:20;11.17;;;4.87;;
6661;SDS011;3367;48.714;8.994;2023-04-06T12:53:46;5.57;;;4.73;;
6661;SDS011;3367;48.714;8.994;2023-04-06T12:56:14;9.03;;;5.30;;
6661;SDS011;3367;48.714;8.994;2023-04-06T12:58:42;9.43;;;5.27;;
6661;SDS011;3367;48.714;8.994;2023-04-06T13:01:10;10.63;;;4.10;;
6661;SDS011;3367;48.714;8.994;2023-04-06T13:03:37;5.67;;;4.23;;
6661;SDS011;3367;48.714;8.994;2023-04-06T13:06:04;7.90;;;4.70;;
6661;SDS011;3367;48.714;8.994;2023-04-06T13:08:31;4.60;;;4.20;;
6661;SDS011;3367;48.714;8.994;2023-04-06T13:10:58;6.40;;;5.27;;
6661;SDS011;3367;48.714;8.994;2023-04-06T13:13:25;5.87;;;4.93;;
6661;SDS011;3367;48.714;8.994;2023-04-06T13:15:53;5.30;;;4.80;;
6661;SDS011;3367;48.714;8.994;2023-04-06T13:18:22;6.37;;;5.00;;
6661;SDS011;3367;48.714;8.994;2023-04-06T13:20:49;5.07;;;4.57;;
6661;SDS011;3367;48.714;8.994;2023-04-06T13:23:16;4.53;;;4.13;;
6661;SDS011;3367;48.714;8.994;2023-04-06T13:25:42;12.57;;;4.63;;
6661;SDS011;3367;48.714;8.994;2023-04-06T13:28:10;5.80;;;4.93;;
6661;SDS011;3367;48.714;8.994;2023-04-06T13:30:37;9.43;;;4.40;;
6661;SDS011;3367;48.714;8.994;2023-04-06T13:33:04;6.53;;;4.63;;
6661;SDS011;3367;48.714;8.994;2023-04-06T13:35:32;5.03;;;4.53;;
6661;SDS011;3367;48.714;8.994;2023-04-06T13:38:00;5.33;;;4.70;;
6661;SDS011;3367;48.714;8.994;2023-04-06T13:40:27;6.10;;;5.60;;
6661;SDS011;3367;48.714;8.994;2023-04-06T13:42:54;5.77;;;3.87;;
6661;SDS011;3367;48.714;8.994;2023-04-06T13:45:20;6.27;;;4.57;;
6661;SDS011;3367;48.714;8.994;2023-04-06T13:47:47;7.20;;;6.50;;
6661;SDS011;3367;48.714;8.994;2023-04-06T13:50:13;5.20;;;4.50;;
6661;SDS011;3367;48.714;8.994;2023-04-06T13:52:42;6.30;;;5.53;;
6661;SDS011;3367;48.714;8.994;2023-04-06T13:55:08;5.17;;;4.67;;
6661;SDS011;3367;48.714;8.994;2023-04-06T13:57:35;5.80;;;5.20;;
6661;SDS011;3367;48.714;8.994;2023-04-06T14:00:03;6.40;;;5.23;;
6661;SDS011;3367;48.714;8.994;2023-04-06T14:02:31;8.20;;;5.17;;
6661;SDS011;3367;48.714;8.994;2023-04-06T14:04:58;5.40;;;4.10;;
6661;SDS011;3367;48.714;8.994;2023-04-06T14:07:24;5.60;;;4.40;;
6661;SDS011;3367;48.714;8.994;2023-04-06T14:09:52;5.90;;;4.83;;
6661;SDS011;3367;48.714;8.994;2023-04-06T14:12:19;5.80;;;4.20;;
6661;SDS011;3367;48.714;8.994;2023-04-06T14:14:46;5.10;;;4.07;;
6661;SDS011;3367;48.714;8.994;2023-04-06T14:17:13;5.60;;;4.80;;
6661;SDS011;3367;48.714;8.994;2023-04-06T14:19:39;6.40;;;5.00;;
6661;SDS011;3367;48.714;8.994;2023-04-06T14:22:07;5.33;;;4.53;;
6661;SDS011;3367;48.714;8.994;2023-04-06T14:24:35;5.33;;;4.33;;
6661;SDS011;3367;48.714;8.994;2023-04-06T14:27:04;6.50;;;4.90;;
6661;SDS011;3367;48.714;8.994;2023-04-06T14:29:30;5.60;;;4.57;;
6661;SDS011;3367;48.714;8.994;2023-04-06T14:31:57;6.80;;;4.70;;
6661;SDS011;3367;48.714;8.994;2023-04-06T14:34:25;6.50;;;5.00;;
6661;SDS011;3367;48.714;8.994;2023-04-06T14:36:52;5.93;;;5.33;;
6661;SDS011;3367;48.714;8.994;2023-04-06T14:39:19;6.60;;;5.40;;
6661;SDS011;3367;48.714;8.994;2023-04-06T14:41:46;8.70;;;5.23;;
6661;SDS011;3367;48.714;8.994;2023-04-06T14:44:14;5.87;;;5.27;;
6661;SDS011;3367;48.714;8.994;2023-04-06T14:46:41;6.40;;;5.30;;
6661;SDS011;3367;48.714;8.994;2023-04-06T14:49:08;7.93;;;5.00;;
6661;SDS011;3367;48.714;8.994;2023-04-06T14:51:35;4.97;;;4.50;;
6661;SDS011;3367;48.714;8.994;2023-04-06T14:54:02;5.50;;;4.63;;
6661;SDS011;3367;48.714;8.994;2023-04-06T14:56:29;5.97;;;4.30;;
6661;SDS011;3367;48.714;8.994;2023-04-06T14:58:57;8.23;;;5.00;;
6661;SDS011;3367;48.714;8.994;2023-04-06T15:01:25;6.43;;;4.80;;
6661;SDS011;3367;48.714;8.994;2023-04-06T15:03:52;5.27;;;4.20;;
6661;SDS011;3367;48.714;8.994;2023-04-06T15:06:19;4.83;;;4.07;;
6661;SDS011;3367;48.714;8.994;2023-04-06T15:08:46;5.40;;;4.57;;
6661;SDS011;3367;48.714;8.994;2023-04-06T15:11:13;7.40;;;4.60;;